createdAt,value
2018-06-21T00:00:11.877Z,79.37
2018-06-21T00:01:11.874Z,79.27
2018-06-21T00:02:11.857Z,79.37
2018-06-21T00:03:11.911Z,79.47
2018-06-21T00:04:11.877Z,79.17
2018-06-21T00:05:11.909Z,79.17
2018-06-21T00:06:11.916Z,79.37
2018-06-21T00:07:11.884Z,79.17
2018-06-21T00:08:11.893Z,79.37
2018-06-21T00:09:11.916Z,79.17
2018-06-21T00:10:11.869Z,79.37
2018-06-21T00:11:11.887Z,78.99
2018-06-21T00:12:11.905Z,79.08
2018-06-21T00:13:11.929Z,79.37
2018-06-21T00:14:11.860Z,79.37
2018-06-21T00:15:11.888Z,79.17
2018-06-21T00:16:11.926Z,79.17
2018-06-21T00:17:11.907Z,79.37
2018-06-21T00:18:11.880Z,79.37
2018-06-21T00:19:11.899Z,79.27
2018-06-21T00:20:11.900Z,79.08
2018-06-21T00:21:11.908Z,79.37
2018-06-21T00:22:11.915Z,79.37
2018-06-21T00:23:11.890Z,79.27
2018-06-21T00:24:11.895Z,79.47
2018-06-21T00:25:11.901Z,78.99
2018-06-21T00:26:11.915Z,79.08
2018-06-21T00:27:11.912Z,79.17
2018-06-21T00:28:11.976Z,78.99
2018-06-21T00:29:11.949Z,79.37
2018-06-21T00:30:11.953Z,79.37
2018-06-21T00:31:11.927Z,79.17
2018-06-21T00:32:11.924Z,79.27
2018-06-21T00:33:11.952Z,79.47
2018-06-21T00:34:11.969Z,79.37
2018-06-21T00:35:11.912Z,79.47
2018-06-21T00:36:11.921Z,79.37
2018-06-21T00:37:11.932Z,79.17
2018-06-21T00:38:11.967Z,79.27
2018-06-21T00:39:11.932Z,79.17
2018-06-21T00:40:11.930Z,79.27
2018-06-21T00:41:11.941Z,79.37
2018-06-21T00:42:11.978Z,79.27
2018-06-21T00:43:11.968Z,79.08
2018-06-21T00:44:11.922Z,79.27
2018-06-21T00:45:11.982Z,79.47
2018-06-21T00:46:11.965Z,79.17
2018-06-21T00:47:11.941Z,79.27
2018-06-21T00:48:11.953Z,79.27
2018-06-21T00:49:11.955Z,79.27
2018-06-21T00:50:11.987Z,79.17
2018-06-21T00:51:11.979Z,79.37
2018-06-21T00:52:11.936Z,79.47
2018-06-21T00:53:11.980Z,79.47
2018-06-21T00:54:11.961Z,79.37
2018-06-21T00:55:11.972Z,79.17
2018-06-21T00:56:11.975Z,79.27
2018-06-21T00:57:11.961Z,79.37
2018-06-21T00:58:12.016Z,79.37
2018-06-21T00:59:11.976Z,79.27
2018-06-21T01:00:12.010Z,79.17
2018-06-21T01:01:11.985Z,79.27
2018-06-21T01:02:11.999Z,79.37
2018-06-21T01:03:11.995Z,79.27
2018-06-21T01:04:11.972Z,79.17
2018-06-21T01:05:12.020Z,79.37
2018-06-21T01:06:11.994Z,79.17
2018-06-21T01:07:11.986Z,79.27
2018-06-21T01:08:12.005Z,79.27
2018-06-21T01:09:11.988Z,79.27
2018-06-21T01:10:11.989Z,79.17
2018-06-21T01:11:11.992Z,79.66
2018-06-21T01:12:12.014Z,79.27
2018-06-21T01:13:11.964Z,79.17
2018-06-21T01:14:11.977Z,79.17
2018-06-21T01:15:12.011Z,79.08
2018-06-21T01:16:12.032Z,79.27
2018-06-21T01:17:12.013Z,79.08
2018-06-21T01:18:11.998Z,79.37
2018-06-21T01:19:11.982Z,79.37
2018-06-21T01:20:12.016Z,78.99
2018-06-21T01:21:11.986Z,78.99
2018-06-21T01:22:12.004Z,79.37
2018-06-21T01:23:12.010Z,79.08
2018-06-21T01:24:12.035Z,79.08
2018-06-21T01:25:12.015Z,78.99
2018-06-21T01:26:12.018Z,79.08
2018-06-21T01:27:11.998Z,78.99
2018-06-21T01:28:12.043Z,78.99
2018-06-21T01:29:12.050Z,79.08
2018-06-21T01:30:12.020Z,78.99
2018-06-21T01:31:12.050Z,79.17
2018-06-21T01:32:12.050Z,79.27
2018-06-21T01:33:12.016Z,79.47
2018-06-21T01:34:12.025Z,79.47
2018-06-21T01:35:12.054Z,79.37
2018-06-21T01:36:12.010Z,79.17
2018-06-21T01:37:12.017Z,79.17
2018-06-21T01:38:12.052Z,79.17
2018-06-21T01:39:12.064Z,79.37
2018-06-21T01:40:12.062Z,79.47
2018-06-21T01:41:12.089Z,79.37
2018-06-21T01:42:12.034Z,79.08
2018-06-21T01:43:12.074Z,79.37
2018-06-21T01:44:12.096Z,79.17
2018-06-21T01:45:12.142Z,79.17
2018-06-21T01:46:12.052Z,79.08
2018-06-21T01:47:12.081Z,79.17
2018-06-21T01:48:12.058Z,79.17
2018-06-21T01:49:12.076Z,79.27
2018-06-21T01:50:12.096Z,79.27
2018-06-21T01:51:12.036Z,79.85
2018-06-21T01:52:12.061Z,79.08
2018-06-21T01:53:12.121Z,79.27
2018-06-21T01:54:12.098Z,79.27
2018-06-21T01:55:12.080Z,79.17
2018-06-21T01:56:12.137Z,79.08
2018-06-21T01:57:12.117Z,78.99
2018-06-21T01:58:12.047Z,78.99
2018-06-21T01:59:12.066Z,79.37
2018-06-21T02:00:12.112Z,78.99
2018-06-21T02:01:12.094Z,79.47
2018-06-21T02:02:12.136Z,78.99
2018-06-21T02:03:12.108Z,78.99
2018-06-21T02:04:12.074Z,79.17
2018-06-21T02:05:12.146Z,79.37
2018-06-21T02:06:12.102Z,79.47
2018-06-21T02:07:12.121Z,79.37
2018-06-21T02:08:12.154Z,79.37
2018-06-21T02:09:12.097Z,79.37
2018-06-21T02:10:12.181Z,79.17
2018-06-21T02:11:12.161Z,79.47
2018-06-21T02:12:12.116Z,79.27
2018-06-21T02:13:12.103Z,79.27
2018-06-21T02:14:12.083Z,79.37
2018-06-21T02:15:12.118Z,79.37
2018-06-21T02:16:12.099Z,79.17
2018-06-21T02:17:12.123Z,79.37
2018-06-21T02:18:12.130Z,79.17
2018-06-21T02:19:12.092Z,79.37
2018-06-21T02:20:12.123Z,79.37
2018-06-21T02:21:12.125Z,79.47
2018-06-21T02:22:12.136Z,79.17
2018-06-21T02:23:12.110Z,79.37
2018-06-21T02:24:12.101Z,79.27
2018-06-21T02:25:12.124Z,79.27
2018-06-21T02:26:12.131Z,79.17
2018-06-21T02:27:12.110Z,79.17
2018-06-21T02:28:12.150Z,79.37
2018-06-21T02:29:12.161Z,79.37
2018-06-21T02:30:12.196Z,79.47
2018-06-21T02:31:12.193Z,79.47
2018-06-21T02:32:12.168Z,79.37
2018-06-21T02:33:12.176Z,79.27
2018-06-21T02:34:12.298Z,79.47
2018-06-21T02:35:12.145Z,79.37
2018-06-21T02:36:12.146Z,79.27
2018-06-21T02:37:12.184Z,79.37
2018-06-21T02:38:12.209Z,79.37
2018-06-21T02:39:12.171Z,79.47
2018-06-21T02:40:12.145Z,79.47
2018-06-21T02:41:12.153Z,79.27
2018-06-21T02:42:12.201Z,79.27
2018-06-21T02:43:12.169Z,79.47
2018-06-21T02:44:12.153Z,79.27
2018-06-21T02:45:12.181Z,79.57
2018-06-21T02:46:12.187Z,79.08
2018-06-21T02:47:12.170Z,79.37
2018-06-21T02:48:12.201Z,79.17
2018-06-21T02:49:12.176Z,79.27
2018-06-21T02:50:12.216Z,79.17
2018-06-21T02:51:12.187Z,79.27
2018-06-21T02:52:12.193Z,79.17
2018-06-21T02:53:12.223Z,79.17
2018-06-21T02:54:12.162Z,79.17
2018-06-21T02:55:12.327Z,79.08
2018-06-21T02:56:12.177Z,79.17
2018-06-21T02:57:12.225Z,79.17
2018-06-21T02:58:12.270Z,79.08
2018-06-21T02:59:12.211Z,79.27
2018-06-21T03:00:12.204Z,79.27
2018-06-21T03:01:12.199Z,79.27
2018-06-21T03:02:12.214Z,79.27
2018-06-21T03:03:12.185Z,79.08
2018-06-21T03:04:12.200Z,79.08
2018-06-21T03:05:12.228Z,79.17
2018-06-21T03:06:12.220Z,79.08
2018-06-21T03:07:12.220Z,78.99
2018-06-21T03:08:12.222Z,79.08
2018-06-21T03:09:12.240Z,79.08
2018-06-21T03:10:12.234Z,79.17
2018-06-21T03:11:13.912Z,79.37
2018-06-21T03:12:12.210Z,79.76
2018-06-21T03:13:12.205Z,79.57
2018-06-21T03:14:12.259Z,79.85
2018-06-21T03:15:12.212Z,79.57
2018-06-21T03:16:12.299Z,79.85
2018-06-21T03:17:13.059Z,79.66
2018-06-21T03:18:13.130Z,80.05
2018-06-21T03:19:12.232Z,80.24
2018-06-21T03:20:12.228Z,79.95
2018-06-21T03:21:12.253Z,80.24
2018-06-21T03:22:12.326Z,80.15
2018-06-21T03:23:12.337Z,79.47
2018-06-21T03:24:12.232Z,79.85
2018-06-21T03:25:12.270Z,79.76
2018-06-21T03:26:12.251Z,80.15
2018-06-21T03:27:12.248Z,79.66
2018-06-21T03:28:12.254Z,80.15
2018-06-21T03:29:12.261Z,79.85
2018-06-21T03:30:12.238Z,79.66
2018-06-21T03:31:12.250Z,79.57
2018-06-21T03:32:12.251Z,79.57
2018-06-21T03:33:12.231Z,79.66
2018-06-21T03:34:12.262Z,79.47
2018-06-21T03:35:12.268Z,79.57
2018-06-21T03:36:12.266Z,79.66
2018-06-21T03:37:12.263Z,79.57
2018-06-21T03:38:12.313Z,79.76
2018-06-21T03:39:12.245Z,79.66
2018-06-21T03:40:12.283Z,79.95
2018-06-21T03:41:12.264Z,79.95
2018-06-21T03:42:12.279Z,80.15
2018-06-21T03:43:12.277Z,80.24
2018-06-21T03:44:12.283Z,79.76
2018-06-21T03:45:12.284Z,79.66
2018-06-21T03:46:12.246Z,79.66
2018-06-21T03:47:12.627Z,79.57
2018-06-21T03:48:12.277Z,79.37
2018-06-21T03:49:12.286Z,79.76
2018-06-21T03:50:12.248Z,79.76
2018-06-21T03:51:12.308Z,79.57
2018-06-21T03:52:12.372Z,79.47
2018-06-21T03:53:12.268Z,79.47
2018-06-21T03:54:12.289Z,79.47
2018-06-21T03:55:12.285Z,79.57
2018-06-21T03:56:12.303Z,79.57
2018-06-21T03:57:12.291Z,79.57
2018-06-21T03:58:12.301Z,79.66
2018-06-21T03:59:12.298Z,79.76
2018-06-21T04:00:12.312Z,79.85
2018-06-21T04:01:12.337Z,79.76
2018-06-21T04:02:12.310Z,79.85
2018-06-21T04:03:12.346Z,79.76
2018-06-21T04:04:12.306Z,79.85
2018-06-21T04:05:12.333Z,79.66
2018-06-21T04:06:12.315Z,79.57
2018-06-21T04:07:12.329Z,79.76
2018-06-21T04:08:12.296Z,79.85
2018-06-21T04:09:12.342Z,79.76
2018-06-21T04:10:12.319Z,79.85
2018-06-21T04:11:12.333Z,79.66
2018-06-21T04:12:12.334Z,79.66
2018-06-21T04:13:12.289Z,79.85
2018-06-21T04:14:12.319Z,79.85
2018-06-21T04:15:12.324Z,79.85
2018-06-21T04:16:12.330Z,79.85
2018-06-21T04:17:12.310Z,79.95
2018-06-21T04:18:12.319Z,79.76
2018-06-21T04:19:12.322Z,79.76
2018-06-21T04:20:12.332Z,79.37
2018-06-21T04:21:12.321Z,79.57
2018-06-21T04:22:12.342Z,79.37
2018-06-21T04:23:12.351Z,79.57
2018-06-21T04:24:14.056Z,79.85
2018-06-21T04:25:12.338Z,79.76
2018-06-21T04:26:12.408Z,79.85
2018-06-21T04:27:12.344Z,79.76
2018-06-21T04:28:12.348Z,79.76
2018-06-21T04:29:12.364Z,79.76
2018-06-21T04:30:12.371Z,79.47
2018-06-21T04:31:12.350Z,80.24
2018-06-21T04:32:12.442Z,80.34
2018-06-21T04:33:12.338Z,80.05
2018-06-21T04:34:12.331Z,79.95
2018-06-21T04:35:12.386Z,79.85
2018-06-21T04:36:12.333Z,79.95
2018-06-21T04:37:12.354Z,79.76
2018-06-21T04:38:12.372Z,79.76
2018-06-21T04:39:12.363Z,80.54
2018-06-21T04:40:12.745Z,79.95
2018-06-21T04:41:12.341Z,80.63
2018-06-21T04:42:12.396Z,80.15
2018-06-21T04:43:12.430Z,79.57
2018-06-21T04:44:12.360Z,79.57
2018-06-21T04:45:12.397Z,80.24
2018-06-21T04:46:12.382Z,79.47
2018-06-21T04:47:12.388Z,80.15
2018-06-21T04:48:12.396Z,79.57
2018-06-21T04:49:12.398Z,79.47
2018-06-21T04:50:12.450Z,79.66
2018-06-21T04:51:13.185Z,79.95
2018-06-21T04:52:12.397Z,79.66
2018-06-21T04:53:12.379Z,79.57
2018-06-21T04:54:12.434Z,79.57
2018-06-21T04:55:13.187Z,79.57
2018-06-21T04:56:12.416Z,79.66
2018-06-21T04:57:12.477Z,79.76
2018-06-21T04:58:12.455Z,79.47
2018-06-21T04:59:12.432Z,79.66
2018-06-21T05:00:13.287Z,79.66
2018-06-21T05:01:12.422Z,79.66
2018-06-21T05:02:12.431Z,79.85
2018-06-21T05:03:12.417Z,79.57
2018-06-21T05:04:12.445Z,79.66
2018-06-21T05:05:12.402Z,79.66
2018-06-21T05:06:12.489Z,79.76
2018-06-21T05:07:12.483Z,79.76
2018-06-21T05:08:12.397Z,79.76
2018-06-21T05:09:12.406Z,79.66
2018-06-21T05:10:12.480Z,79.66
2018-06-21T05:11:12.539Z,79.76
2018-06-21T05:12:12.455Z,79.76
2018-06-21T05:13:12.422Z,79.37
2018-06-21T05:14:12.451Z,80.34
2018-06-21T05:15:12.417Z,80.24
2018-06-21T05:16:12.439Z,80.15
2018-06-21T05:17:12.493Z,80.15
2018-06-21T05:18:12.490Z,80.15
2018-06-21T05:19:12.441Z,80.24
2018-06-21T05:20:12.477Z,80.24
2018-06-21T05:21:12.461Z,80.24
2018-06-21T05:22:12.514Z,80.63
2018-06-21T05:23:12.484Z,80.24
2018-06-21T05:24:12.546Z,79.95
2018-06-21T05:25:12.530Z,80.44
2018-06-21T05:26:12.455Z,80.24
2018-06-21T05:27:12.497Z,79.95
2018-06-21T05:28:12.450Z,79.95
2018-06-21T05:29:12.472Z,80.15
2018-06-21T05:30:12.533Z,79.85
2018-06-21T05:31:12.537Z,79.95
2018-06-21T05:32:12.524Z,80.24
2018-06-21T05:33:12.524Z,80.24
2018-06-21T05:34:12.467Z,80.44
2018-06-21T05:35:12.440Z,80.24
2018-06-21T05:36:12.475Z,80.15
2018-06-21T05:37:12.503Z,80.44
2018-06-21T05:38:12.479Z,80.54
2018-06-21T05:39:12.516Z,79.85
2018-06-21T05:40:12.469Z,80.54
2018-06-21T05:41:12.475Z,79.76
2018-06-21T05:42:12.499Z,79.85
2018-06-21T05:43:12.543Z,79.95
2018-06-21T05:44:12.502Z,79.95
2018-06-21T05:45:12.500Z,80.24
2018-06-21T05:46:12.461Z,79.95
2018-06-21T05:47:12.502Z,80.15
2018-06-21T05:48:12.493Z,80.15
2018-06-21T05:49:12.489Z,80.05
2018-06-21T05:50:12.576Z,79.95
2018-06-21T05:51:12.512Z,79.95
2018-06-21T05:52:12.551Z,79.85
2018-06-21T05:53:12.506Z,80.05
2018-06-21T05:54:12.505Z,80.05
2018-06-21T05:55:12.538Z,79.95
2018-06-21T05:56:12.503Z,79.95
2018-06-21T05:57:12.557Z,80.15
2018-06-21T05:58:12.482Z,80.15
2018-06-21T05:59:12.513Z,79.95
2018-06-21T06:00:12.495Z,80.15
2018-06-21T06:01:12.505Z,79.76
2018-06-21T06:02:12.520Z,80.15
2018-06-21T06:03:12.495Z,80.24
2018-06-21T06:04:12.527Z,79.66
2018-06-21T06:05:12.502Z,80.15
2018-06-21T06:06:12.561Z,79.47
2018-06-21T06:07:12.540Z,80.15
2018-06-21T06:08:12.581Z,79.47
2018-06-21T06:09:12.554Z,79.66
2018-06-21T06:10:12.562Z,79.76
2018-06-21T06:11:12.543Z,79.47
2018-06-21T06:12:12.573Z,79.66
2018-06-21T06:13:12.506Z,80.24
2018-06-21T06:14:12.704Z,80.15
2018-06-21T06:15:12.519Z,79.47
2018-06-21T06:16:12.556Z,79.66
2018-06-21T06:17:12.543Z,79.47
2018-06-21T06:18:12.586Z,79.47
2018-06-21T06:19:12.575Z,79.57
2018-06-21T06:20:12.603Z,79.47
2018-06-21T06:21:12.582Z,80.15
2018-06-21T06:22:12.542Z,79.95
2018-06-21T06:23:12.569Z,80.05
2018-06-21T06:24:12.584Z,79.95
2018-06-21T06:25:12.556Z,79.47
2018-06-21T06:26:12.568Z,80.05
2018-06-21T06:27:12.580Z,80.34
2018-06-21T06:28:12.551Z,79.95
2018-06-21T06:29:12.556Z,79.85
2018-06-21T06:30:13.264Z,79.76
2018-06-21T06:31:12.597Z,79.95
2018-06-21T06:32:12.607Z,80.15
2018-06-21T06:33:12.618Z,80.05
2018-06-21T06:34:12.619Z,79.95
2018-06-21T06:35:12.597Z,79.95
2018-06-21T06:36:12.586Z,79.95
2018-06-21T06:37:12.661Z,80.15
2018-06-21T06:38:12.933Z,80.05
2018-06-21T06:39:12.558Z,80.05
2018-06-21T06:40:12.566Z,79.76
2018-06-21T06:41:12.601Z,79.95
2018-06-21T06:42:12.592Z,80.05
2018-06-21T06:43:12.661Z,80.05
2018-06-21T06:44:12.662Z,80.05
2018-06-21T06:45:12.609Z,79.76
2018-06-21T06:46:12.667Z,79.95
2018-06-21T06:47:12.577Z,80.44
2018-06-21T06:48:12.589Z,80.15
2018-06-21T06:49:12.598Z,80.24
2018-06-21T06:50:12.624Z,80.34
2018-06-21T06:53:19.954Z,80.54
2018-06-21T06:53:31.503Z,80.24
2018-06-21T06:54:31.515Z,79.85
2018-06-21T06:55:31.516Z,80.24
2018-06-21T06:56:31.463Z,79.95
2018-06-21T06:57:31.452Z,79.95
2018-06-21T06:58:31.467Z,79.95
2018-06-21T06:59:31.484Z,79.85
2018-06-21T07:00:31.459Z,79.95
2018-06-21T07:01:31.459Z,79.85
2018-06-21T07:02:31.436Z,79.95
2018-06-21T07:03:31.465Z,79.95
2018-06-21T07:04:31.473Z,79.85
2018-06-21T07:05:31.461Z,79.85
2018-06-21T07:06:31.495Z,79.85
2018-06-21T07:07:31.523Z,79.95
2018-06-21T07:08:31.563Z,80.24
2018-06-21T07:09:31.543Z,79.95
2018-06-21T07:10:31.512Z,80.05
2018-06-21T07:11:31.472Z,79.95
2018-06-21T07:12:31.447Z,79.85
2018-06-21T07:13:31.490Z,79.85
2018-06-21T07:14:31.568Z,80.05
2018-06-21T07:15:31.473Z,79.95
2018-06-21T07:16:31.472Z,79.95
2018-06-21T07:17:31.483Z,80.15
2018-06-21T07:18:31.512Z,79.95
2018-06-21T07:19:31.496Z,79.95
2018-06-21T07:20:31.644Z,79.95
2018-06-21T07:21:31.482Z,79.95
2018-06-21T07:22:31.497Z,79.85
2018-06-21T07:23:31.549Z,80.05
2018-06-21T07:24:31.485Z,80.34
2018-06-21T07:25:31.486Z,80.15
2018-06-21T07:26:31.493Z,80.24
2018-06-21T07:27:31.552Z,80.15
2018-06-21T07:28:31.698Z,79.95
2018-06-21T07:29:31.513Z,79.85
2018-06-21T07:30:31.520Z,79.95
2018-06-21T07:31:31.475Z,79.95
2018-06-21T07:32:31.557Z,79.95
2018-06-21T07:33:31.624Z,79.95
2018-06-21T07:34:31.509Z,80.15
2018-06-21T07:35:31.501Z,80.15
2018-06-21T07:36:31.561Z,80.05
2018-06-21T07:37:31.541Z,80.15
2018-06-21T07:38:31.519Z,80.15
2018-06-21T07:39:31.508Z,80.15
2018-06-21T07:40:31.555Z,79.47
2018-06-21T07:41:31.510Z,79.47
2018-06-21T07:42:31.525Z,79.66
2018-06-21T07:43:31.537Z,79.57
2018-06-21T07:44:31.535Z,79.57
2018-06-21T07:45:31.519Z,79.47
2018-06-21T07:46:31.525Z,79.66
2018-06-21T07:47:31.557Z,79.66
2018-06-21T07:48:31.566Z,79.66
2018-06-21T07:49:31.586Z,79.66
2018-06-21T07:50:31.542Z,79.76
2018-06-21T07:51:31.575Z,79.95
2018-06-21T07:52:31.538Z,80.15
2018-06-21T07:53:31.571Z,79.47
2018-06-21T07:54:31.568Z,79.57
2018-06-21T07:55:31.548Z,79.85
2018-06-21T07:56:31.540Z,79.57
2018-06-21T07:57:31.592Z,79.76
2018-06-21T07:58:31.570Z,79.85
2018-06-21T07:59:31.559Z,79.66
2018-06-21T08:00:31.567Z,79.85
2018-06-21T08:01:31.570Z,79.47
2018-06-21T08:02:31.567Z,79.76
2018-06-21T08:03:31.606Z,79.85
2018-06-21T08:04:31.599Z,79.95
2018-06-21T08:05:31.601Z,79.85
2018-06-21T08:06:31.579Z,79.17
2018-06-21T08:07:31.626Z,79.66
2018-06-21T08:08:31.584Z,79.08
2018-06-21T08:09:31.563Z,79.47
2018-06-21T08:10:31.599Z,79.85
2018-06-21T08:11:31.577Z,79.66
2018-06-21T08:12:31.653Z,79.85
2018-06-21T08:13:31.597Z,79.76
2018-06-21T08:14:31.599Z,79.66
2018-06-21T08:15:31.575Z,79.95
2018-06-21T08:16:31.580Z,79.66
2018-06-21T08:17:31.565Z,79.08
2018-06-21T08:18:31.599Z,79.76
2018-06-21T08:19:31.644Z,79.85
2018-06-21T08:20:31.615Z,79.57
2018-06-21T08:21:31.596Z,79.76
2018-06-21T08:22:31.602Z,79.76
2018-06-21T08:23:31.600Z,79.66
2018-06-21T08:24:31.665Z,79.76
2018-06-21T08:25:31.590Z,79.08
2018-06-21T08:26:31.630Z,79.85
2018-06-21T08:27:31.580Z,79.27
2018-06-21T08:28:31.663Z,79.08
2018-06-21T08:29:31.646Z,78.99
2018-06-21T08:30:31.624Z,78.99
2018-06-21T08:31:31.612Z,79.08
2018-06-21T08:32:31.613Z,78.99
2018-06-21T08:33:31.641Z,79.66
2018-06-21T08:34:31.625Z,79.17
2018-06-21T08:35:31.631Z,79.17
2018-06-21T08:36:31.617Z,79.76
2018-06-21T08:37:31.697Z,79.76
2018-06-21T08:38:31.656Z,78.99
2018-06-21T08:39:31.633Z,79.37
2018-06-21T08:40:31.640Z,79.27
2018-06-21T08:41:31.620Z,79.17
2018-06-21T08:42:31.651Z,79.76
2018-06-21T08:43:31.642Z,79.17
2018-06-21T08:44:31.663Z,78.99
2018-06-21T08:45:31.648Z,79.66
2018-06-21T08:46:31.636Z,79.66
2018-06-21T08:47:31.661Z,79.85
2018-06-21T08:48:31.671Z,79.47
2018-06-21T08:49:31.675Z,79.27
2018-06-21T08:50:31.705Z,78.99
2018-06-21T08:51:31.688Z,79.27
2018-06-21T08:52:31.690Z,79.27
2018-06-21T08:53:31.699Z,79.27
2018-06-21T08:54:31.686Z,79.17
2018-06-21T08:55:31.657Z,79.27
2018-06-21T08:56:31.663Z,79.37
2018-06-21T08:57:31.762Z,79.27
2018-06-21T08:58:31.725Z,79.47
2018-06-21T08:59:31.685Z,79.66
2018-06-21T09:00:31.700Z,79.85
2018-06-21T09:01:31.712Z,79.85
2018-06-21T09:02:31.717Z,79.27
2018-06-21T09:03:31.694Z,79.76
2018-06-21T09:04:31.693Z,79.57
2018-06-21T09:05:31.706Z,79.95
2018-06-21T09:06:31.665Z,79.66
2018-06-21T09:07:31.774Z,79.57
2018-06-21T09:08:31.750Z,79.85
2018-06-21T09:09:31.773Z,79.17
2018-06-21T09:10:31.665Z,79.66
2018-06-21T09:11:31.684Z,79.66
2018-06-21T09:12:31.772Z,79.76
2018-06-21T09:13:31.739Z,79.66
2018-06-21T09:14:31.730Z,79.47
2018-06-21T09:15:31.743Z,79.27
2018-06-21T09:16:32.699Z,79.47
2018-06-21T09:17:31.783Z,79.76
2018-06-21T09:18:31.721Z,79.66
2018-06-21T09:19:31.682Z,79.76
2018-06-21T09:24:00.164Z,79.76
2018-06-21T09:25:00.134Z,79.76
2018-06-21T09:26:00.118Z,79.95
2018-06-21T09:27:00.201Z,79.76
2018-06-21T09:28:00.117Z,79.57
2018-06-21T09:29:00.145Z,79.27
2018-06-21T09:30:00.119Z,79.85
2018-06-21T09:31:00.077Z,79.85
2018-06-21T09:32:00.130Z,79.47
2018-06-21T09:33:00.165Z,79.17
2018-06-21T09:34:00.131Z,79.41
2018-06-21T09:35:00.133Z,79.08
2018-06-21T09:36:00.143Z,78.79
2018-06-21T09:37:00.122Z,79.27
2018-06-21T09:38:00.120Z,79.08
2018-06-21T09:42:29.234Z,79.37
2018-06-21T09:43:29.247Z,78.5
2018-06-21T09:44:29.192Z,78.89
2018-06-21T09:45:29.223Z,79.37
2018-06-21T09:46:33.871Z,79.08
2018-06-21T09:47:29.238Z,79.41
2018-06-21T09:48:29.241Z,79.17
2018-06-21T09:49:29.246Z,79.66
2018-06-21T09:50:29.329Z,79.27
2018-06-21T09:51:29.238Z,79.27
2018-06-21T09:52:29.399Z,79.17
2018-06-21T09:53:29.272Z,79.27
2018-06-21T09:54:29.286Z,79.57
2018-06-21T09:55:29.294Z,78.99
2018-06-21T09:56:29.302Z,79.08
2018-06-21T09:57:29.303Z,78.89
2018-06-21T09:58:29.303Z,78.89
2018-06-21T09:59:29.266Z,79.47
2018-06-21T10:00:29.265Z,78.99
2018-06-21T10:01:29.279Z,79.17
2018-06-21T10:02:29.279Z,78.99
2018-06-21T10:03:29.271Z,79.12
2018-06-21T10:04:29.264Z,78.59
2018-06-21T10:05:29.246Z,79.12
2018-06-21T10:06:29.323Z,78.89
2018-06-21T10:07:29.547Z,78.41
2018-06-21T10:08:29.291Z,78.69
2018-06-21T10:09:29.309Z,78.89
2018-06-21T10:10:29.291Z,78.79
2018-06-21T10:11:29.329Z,78.05
2018-06-21T10:12:29.267Z,78.64
2018-06-21T10:13:29.308Z,78.79
2018-06-21T10:14:29.263Z,78.41
2018-06-21T10:15:29.310Z,78.79
2018-06-21T10:16:29.319Z,77.92
2018-06-21T10:17:29.329Z,79.32
2018-06-21T10:18:29.285Z,78.69
2018-06-21T10:19:29.316Z,78.69
2018-06-21T10:20:29.424Z,78.79
2018-06-21T10:21:29.353Z,78.92
2018-06-21T10:22:29.410Z,79.02
2018-06-21T10:23:29.303Z,78.69
2018-06-21T10:24:29.293Z,77.82
2018-06-21T10:25:29.326Z,78.99
2018-06-21T10:26:29.305Z,78.11
2018-06-21T10:27:29.347Z,78.5
2018-06-21T10:28:29.400Z,78.5
2018-06-21T10:29:29.327Z,78.21
2018-06-21T10:30:29.397Z,77.92
2018-06-21T10:31:29.300Z,78.11
2018-06-21T10:32:29.298Z,77.14
2018-06-21T10:33:29.301Z,78.31
2018-06-21T10:34:29.337Z,78.02
2018-06-21T10:35:29.353Z,77.05
2018-06-21T10:36:29.327Z,77.37
2018-06-21T10:37:29.352Z,76.95
2018-06-21T10:38:29.365Z,75.21
2018-06-21T10:39:29.364Z,76.95
2018-06-21T10:40:29.335Z,75.34
2018-06-21T10:41:29.328Z,76.46
2018-06-21T10:42:29.350Z,76.79
2018-06-21T10:43:29.399Z,75.89
2018-06-21T10:44:29.431Z,76.08
2018-06-21T10:45:29.304Z,75.98
2018-06-21T10:46:29.327Z,74.82
2018-06-21T10:47:29.406Z,74.63
2018-06-21T10:48:29.389Z,74.92
2018-06-21T10:49:29.344Z,76.08
2018-06-21T10:50:29.419Z,76.37
2018-06-21T10:51:29.371Z,75.79
2018-06-21T10:52:29.355Z,74.76
2018-06-21T10:53:29.357Z,75.31
2018-06-21T10:54:29.413Z,75.89
2018-06-21T10:55:29.419Z,75.79
2018-06-21T10:56:29.373Z,76.86
2018-06-21T10:57:29.362Z,76.86
2018-06-21T10:58:29.421Z,77.24
2018-06-21T10:59:29.369Z,77.05
2018-06-21T11:00:29.350Z,77.05
2018-06-21T11:01:29.377Z,77.28
2018-06-21T11:02:29.520Z,77.14
2018-06-21T11:03:29.395Z,76.18
2018-06-21T11:04:29.429Z,76.86
2018-06-21T11:05:29.353Z,76.7
2018-06-21T11:06:30.009Z,76.89
2018-06-21T11:07:29.568Z,77.05
2018-06-21T11:08:29.456Z,77.09
2018-06-21T11:09:29.429Z,76.99
2018-06-21T11:10:29.399Z,76.86
2018-06-21T11:11:29.413Z,76.95
2018-06-21T11:12:29.358Z,77.09
2018-06-21T11:13:29.387Z,77.14
2018-06-21T11:14:29.374Z,77.14
2018-06-21T11:15:29.368Z,77.14
2018-06-21T11:16:29.373Z,76.86
2018-06-21T11:17:29.386Z,76.7
2018-06-21T11:18:29.415Z,77.14
2018-06-21T11:19:29.426Z,76.76
2018-06-21T11:20:29.413Z,76.86
2018-06-21T11:21:29.522Z,76.66
2018-06-21T11:22:29.388Z,76.56
2018-06-21T11:23:29.399Z,75.15
2018-06-21T11:24:29.400Z,76.41
2018-06-21T11:25:29.444Z,76.99
2018-06-21T11:26:29.406Z,76.18
2018-06-21T11:27:29.394Z,76.37
2018-06-21T11:28:29.415Z,75.4
2018-06-21T11:29:29.393Z,74.63
2018-06-21T11:30:29.476Z,74.76
2018-06-21T11:31:29.434Z,74.86
2018-06-21T11:32:29.390Z,74.76
2018-06-21T11:33:29.409Z,74.66
2018-06-21T11:34:29.414Z,74.05
2018-06-21T11:35:29.448Z,74.08
2018-06-21T11:36:29.462Z,73.18
2018-06-21T11:37:29.415Z,73.37
2018-06-21T11:38:29.413Z,73.95
2018-06-21T11:39:29.430Z,72.89
2018-06-21T11:43:58.248Z,71.14
2018-06-21T11:44:58.131Z,70.56
2018-06-21T11:45:58.137Z,70.6
2018-06-21T11:46:58.132Z,70.56
2018-06-21T11:47:58.100Z,70.56
2018-06-21T11:48:58.140Z,70.66
2018-06-21T11:49:58.170Z,70.95
2018-06-21T11:50:58.141Z,70.76
2018-06-21T11:51:58.125Z,71.04
2018-06-21T11:52:58.232Z,73.75
2018-06-21T11:53:58.147Z,74.05
2018-06-21T11:54:58.175Z,73.75
2018-06-21T11:55:58.161Z,72.5
2018-06-21T11:56:58.134Z,72.5
2018-06-21T11:57:58.168Z,72.02
2018-06-21T11:58:58.810Z,72.4
2018-06-21T11:59:58.158Z,72.89
2018-06-21T12:00:58.165Z,71.82
2018-06-21T12:01:58.191Z,72.6
2018-06-21T12:02:58.233Z,70.76
2018-06-21T12:03:58.747Z,70.76
2018-06-21T12:04:58.151Z,71.18
2018-06-21T12:05:58.196Z,70.86
2018-06-21T12:06:58.152Z,70.95
2018-06-21T12:07:58.156Z,70.76
2018-06-21T12:08:58.239Z,70.86
2018-06-21T12:09:58.142Z,71.44
2018-06-21T12:10:58.278Z,72.21
2018-06-21T12:11:58.154Z,70.76
2018-06-21T12:12:58.189Z,70.56
2018-06-21T12:13:58.326Z,70.66
2018-06-21T12:15:14.743Z,70.95
2018-06-21T12:16:14.595Z,70.08
2018-06-21T12:17:14.590Z,69.89
2018-06-21T12:18:14.629Z,69.31
2018-06-21T12:19:14.741Z,70.56
2018-06-21T12:20:14.823Z,71.04
2018-06-21T12:21:14.581Z,70.86
2018-06-21T12:22:14.633Z,70.18
2018-06-21T12:23:14.686Z,71.44
2018-06-21T12:24:14.572Z,69.69
2018-06-21T12:25:14.606Z,70.86
2018-06-21T12:26:14.690Z,71.24
2018-06-21T12:27:14.670Z,71.14
2018-06-21T12:28:14.622Z,72.02
2018-06-21T12:29:14.665Z,71.44
2018-06-21T12:30:14.688Z,72.05
2018-06-21T12:31:14.608Z,71.44
2018-06-21T12:32:14.692Z,72.4
2018-06-21T12:33:14.646Z,70.95
2018-06-21T12:34:14.610Z,71.72
2018-06-21T12:35:14.693Z,72.11
2018-06-21T12:36:14.597Z,72.98
2018-06-21T12:37:14.634Z,73.27
2018-06-21T12:38:14.787Z,73.27
2018-06-21T12:39:15.128Z,72.21
2018-06-21T12:40:14.670Z,72.11
2018-06-21T12:41:14.657Z,72.79
2018-06-21T12:42:14.818Z,72.5
2018-06-21T12:43:14.608Z,72.02
2018-06-21T12:44:14.622Z,72.92
2018-06-21T12:45:14.660Z,71.56
2018-06-21T12:46:14.692Z,71.24
2018-06-21T12:47:14.656Z,71.24
2018-06-21T12:48:14.628Z,72.11
2018-06-21T12:49:14.647Z,72.79
2018-06-21T12:50:14.734Z,71.47
2018-06-21T12:51:15.239Z,71.28
2018-06-21T12:52:14.676Z,72.73
2018-06-21T12:53:14.645Z,71.92
2018-06-21T12:54:14.682Z,72.79
2018-06-21T12:55:14.633Z,73.18
2018-06-21T12:56:14.695Z,72.98
2018-06-21T12:57:14.649Z,72.6
2018-06-21T12:58:14.680Z,72.69
2018-06-21T12:59:14.664Z,72.24
2018-06-21T13:00:14.922Z,72.15
2018-06-21T13:01:14.728Z,71.92
2018-06-21T13:02:14.661Z,72.21
2018-06-21T13:03:14.852Z,72.53
2018-06-21T13:04:14.890Z,73.37
2018-06-21T13:05:14.688Z,72.63